Time;durP1;ratioP1;P1;durP2;ratioP2;P2;SDS_P1;SDS_P2;PMS_P1;PMS_P2;Temp;Humidity;BMP_temperature;BMP_pressure;BME280_temperature;BME280_humidity;BME280_pressure;Samples;Min_cycle;Max_cycle;Signal;HPM_P1;HPM_P2
2023/12/20 00:02:21;;;;;;;1.67;1.55;;;10.90;66.50;;;;;;5004652;28;20057;-50
2023/12/20 00:04:48;;;;;;;1.80;1.23;;;10.90;66.50;;;;;;5006838;28;20518;-51
2023/12/20 00:07:15;;;;;;;3.22;1.42;;;11.00;66.50;;;;;;5004773;28;20058;-51
2023/12/20 00:09:42;;;;;;;1.77;1.48;;;11.00;66.50;;;;;;5001168;28;20521;-50
2023/12/20 00:12:10;;;;;;;2.15;1.50;;;10.90;66.50;;;;;;5003615;28;20058;-44
2023/12/20 00:14:37;;;;;;;1.95;1.35;;;11.00;66.50;;;;;;5005985;28;20529;-47
2023/12/20 00:17:06;;;;;;;1.80;1.42;;;11.00;66.50;;;;;;5006031;28;20053;-50
2023/12/20 00:19:33;;;;;;;3.50;1.30;;;11.00;66.50;;;;;;5007701;28;20054;-37
2023/12/20 00:22:01;;;;;;;1.52;1.20;;;11.00;66.40;;;;;;5003811;28;20050;-37
2023/12/20 00:24:28;;;;;;;1.90;1.35;;;11.00;66.40;;;;;;5005891;28;20053;-36
2023/12/20 00:26:55;;;;;;;1.70;1.60;;;11.00;66.40;;;;;;5006078;28;20540;-36
2023/12/20 00:29:23;;;;;;;2.00;1.50;;;11.00;66.30;;;;;;5001708;28;20050;-36
2023/12/20 00:31:50;;;;;;;2.30;1.85;;;11.00;66.50;;;;;;5005711;28;21937;-36
2023/12/20 00:34:18;;;;;;;2.13;1.75;;;11.00;66.50;;;;;;5001614;28;20054;-36
2023/12/20 00:36:46;;;;;;;5.18;1.60;;;11.10;66.60;;;;;;5002141;28;20054;-36
2023/12/20 00:39:13;;;;;;;4.57;1.85;;;11.10;66.50;;;;;;5005725;28;20065;-36
2023/12/20 00:41:40;;;;;;;1.60;1.50;;;11.00;66.40;;;;;;5000397;28;20050;-37
2023/12/20 00:44:07;;;;;;;1.80;1.50;;;11.10;66.40;;;;;;5001309;28;20411;-36
2023/12/20 00:46:35;;;;;;;1.95;1.58;;;11.10;66.40;;;;;;4998038;28;20046;-36
2023/12/20 00:49:02;;;;;;;2.20;1.48;;;11.10;66.30;;;;;;5004634;28;20061;-35
2023/12/20 00:51:31;;;;;;;1.80;1.50;;;11.10;66.20;;;;;;5005254;28;20057;-37
2023/12/20 00:53:58;;;;;;;1.30;1.20;;;11.10;66.30;;;;;;4998845;28;20061;-38
2023/12/20 00:56:25;;;;;;;5.95;1.40;;;11.10;66.30;;;;;;4996241;28;20415;-37
2023/12/20 00:58:52;;;;;;;1.50;1.40;;;11.10;66.30;;;;;;5003088;28;20046;-36
2023/12/20 01:01:20;;;;;;;2.47;1.65;;;11.20;66.20;;;;;;5003604;28;20054;-37
2023/12/20 01:03:47;;;;;;;1.55;1.33;;;11.20;66.00;;;;;;5002776;28;20062;-37
2023/12/20 01:06:15;;;;;;;1.77;1.52;;;11.20;65.90;;;;;;5003622;28;20077;-37
2023/12/20 01:08:44;;;;;;;1.40;1.30;;;11.20;65.80;;;;;;5002170;28;20592;-36
2023/12/20 01:11:11;;;;;;;2.40;1.50;;;11.20;65.80;;;;;;5004363;28;20461;-36
2023/12/20 01:13:38;;;;;;;1.30;1.20;;;11.20;65.80;;;;;;5000968;28;20058;-37
2023/12/20 01:16:06;;;;;;;1.35;1.25;;;11.20;65.80;;;;;;5002305;28;20066;-36
2023/12/20 01:18:33;;;;;;;2.08;1.40;;;11.20;65.80;;;;;;5005730;28;20060;-36
2023/12/20 01:21:03;;;;;;;1.70;1.52;;;11.30;65.80;;;;;;5001569;28;20058;-37
2023/12/20 01:23:30;;;;;;;2.85;1.70;;;11.20;65.70;;;;;;4996356;28;20057;-37
2023/12/20 01:25:59;;;;;;;2.20;1.88;;;11.30;65.80;;;;;;5001066;28;20418;-38
2023/12/20 01:28:27;;;;;;;2.75;2.13;;;11.20;65.70;;;;;;5004945;28;20045;-43
2023/12/20 01:30:54;;;;;;;5.55;2.72;;;11.30;65.70;;;;;;5004148;28;20398;-50
2023/12/20 01:33:21;;;;;;;2.50;2.30;;;11.20;65.70;;;;;;5000468;28;20608;-52
2023/12/20 01:35:49;;;;;;;4.03;2.97;;;11.20;65.70;;;;;;5002157;28;20057;-46
2023/12/20 01:38:18;;;;;;;4.85;3.13;;;11.20;65.70;;;;;;5002067;28;20063;-51
2023/12/20 01:40:45;;;;;;;5.40;3.25;;;11.20;65.70;;;;;;5001332;28;20056;-51
2023/12/20 01:43:14;;;;;;;3.85;3.25;;;11.20;65.90;;;;;;5005944;28;20049;-47
2023/12/20 01:45:41;;;;;;;4.45;3.75;;;11.20;65.90;;;;;;5001695;28;20072;-49
2023/12/20 01:48:10;;;;;;;5.03;3.97;;;11.20;65.80;;;;;;5003474;28;20046;-51
2023/12/20 01:50:38;;;;;;;4.68;3.92;;;11.20;65.80;;;;;;5008768;28;20065;-47
2023/12/20 01:53:08;;;;;;;5.93;4.25;;;11.20;65.90;;;;;;5002307;28;20498;-48
2023/12/20 01:55:37;;;;;;;8.50;5.80;;;11.30;65.90;;;;;;5002704;28;20590;-50
2023/12/20 01:58:05;;;;;;;6.72;5.28;;;11.20;65.70;;;;;;5002071;28;20138;-47
2023/12/20 02:00:34;;;;;;;9.63;6.40;;;11.30;65.70;;;;;;5006037;28;20054;-49
2023/12/20 02:03:02;;;;;;;7.30;6.20;;;11.30;65.70;;;;;;5003471;28;20053;-47
2023/12/20 02:05:31;;;;;;;9.73;6.30;;;11.20;65.70;;;;;;5008233;28;20046;-47
2023/12/20 02:07:58;;;;;;;9.38;6.70;;;11.20;65.70;;;;;;5006678;28;20053;-46
2023/12/20 02:10:26;;;;;;;14.32;7.05;;;11.20;65.80;;;;;;5002518;28;20058;-49
2023/12/20 02:12:53;;;;;;;11.25;7.93;;;11.20;66.60;;;;;;5000572;28;20050;-48
2023/12/20 02:15:20;;;;;;;14.95;7.72;;;11.20;65.90;;;;;;4999414;28;20062;-50
2023/12/20 02:17:49;;;;;;;12.35;7.40;;;11.20;65.80;;;;;;5001882;28;21037;-49
2023/12/20 02:20:17;;;;;;;11.82;6.97;;;11.20;65.70;;;;;;4999725;28;20065;-49
2023/12/20 02:22:46;;;;;;;10.48;7.55;;;11.20;65.60;;;;;;5000815;28;20065;-52
2023/12/20 02:25:13;;;;;;;12.40;7.70;;;11.20;65.60;;;;;;5000018;28;20066;-51
2023/12/20 02:27:41;;;;;;;14.25;9.25;;;11.20;65.60;;;;;;5001273;28;20065;-48
2023/12/20 02:30:09;;;;;;;18.65;9.57;;;11.20;65.40;;;;;;5002303;28;20054;-50
2023/12/20 02:32:36;;;;;;;15.27;9.75;;;11.10;64.70;;;;;;5003013;28;20410;-47
2023/12/20 02:35:03;;;;;;;19.17;9.55;;;11.10;64.30;;;;;;4999901;28;20058;-45
2023/12/20 02:37:31;;;;;;;16.92;8.85;;;11.00;64.20;;;;;;5003142;28;20053;-47
2023/12/20 02:39:59;;;;;;;17.67;9.00;;;11.00;64.20;;;;;;5003369;28;20053;-36
2023/12/20 02:42:27;;;;;;;19.42;9.55;;;10.90;64.00;;;;;;5000304;28;20050;-36
2023/12/20 02:44:54;;;;;;;14.00;8.20;;;10.90;63.90;;;;;;4995454;28;20426;-37
2023/12/20 02:47:21;;;;;;;16.05;9.15;;;10.90;63.80;;;;;;4998186;28;20046;-37
2023/12/20 02:49:49;;;;;;;14.60;9.02;;;10.90;63.60;;;;;;4999803;28;20418;-37
2023/12/20 02:52:16;;;;;;;18.23;9.10;;;10.90;63.60;;;;;;4999631;28;20060;-37
2023/12/20 02:54:43;;;;;;;19.17;9.00;;;10.90;63.70;;;;;;5000587;28;20065;-36
2023/12/20 02:57:12;;;;;;;12.95;7.40;;;10.80;63.60;;;;;;5000898;28;20058;-37
2023/12/20 02:59:39;;;;;;;15.32;6.70;;;10.80;63.50;;;;;;4998714;28;20061;-37
2023/12/20 03:02:06;;;;;;;15.38;5.95;;;10.80;63.30;;;;;;5002688;28;20050;-37
2023/12/20 03:04:33;;;;;;;17.65;5.68;;;10.80;62.40;;;;;;5003372;28;20069;-36
2023/12/20 03:07:00;;;;;;;24.55;5.35;;;10.80;62.30;;;;;;4999654;28;20049;-37
2023/12/20 03:09:28;;;;;;;20.05;4.90;;;10.80;62.20;;;;;;5000883;28;20065;-37
2023/12/20 03:11:55;;;;;;;11.05;3.70;;;10.70;62.00;;;;;;5000105;28;20062;-36
2023/12/20 03:14:24;;;;;;;19.05;4.57;;;10.80;61.90;;;;;;4999798;28;20406;-36
2023/12/20 03:16:51;;;;;;;17.42;4.38;;;10.70;61.50;;;;;;4998553;28;20485;-37
2023/12/20 03:19:19;;;;;;;13.82;2.90;;;10.60;61.30;;;;;;5004199;28;20068;-37
2023/12/20 03:21:47;;;;;;;16.25;2.90;;;10.50;61.10;;;;;;5004607;28;20061;-37
2023/12/20 03:24:14;;;;;;;18.65;3.25;;;10.50;61.00;;;;;;5003036;28;20047;-37
2023/12/20 03:26:41;;;;;;;18.30;3.13;;;10.50;61.00;;;;;;5001768;28;20056;-37
2023/12/20 03:29:08;;;;;;;13.38;2.97;;;10.40;60.90;;;;;;4999038;28;20050;-37
2023/12/20 03:31:37;;;;;;;14.57;3.45;;;10.40;61.00;;;;;;4999521;28;20513;-36
2023/12/20 03:34:04;;;;;;;11.82;2.92;;;10.40;61.20;;;;;;4996237;28;20064;-37
2023/12/20 03:36:31;;;;;;;14.55;2.60;;;10.40;61.30;;;;;;4997075;28;20058;-37
2023/12/20 03:38:59;;;;;;;13.63;2.80;;;10.40;61.20;;;;;;4997097;28;20053;-37
2023/12/20 03:41:26;;;;;;;13.30;3.03;;;10.40;61.30;;;;;;5000287;28;20045;-37
2023/12/20 03:43:53;;;;;;;12.57;2.28;;;10.40;61.40;;;;;;4996856;28;20054;-37
2023/12/20 03:46:20;;;;;;;20.73;2.70;;;10.40;61.50;;;;;;4996989;28;20051;-36
2023/12/20 03:48:49;;;;;;;12.65;2.35;;;10.40;61.50;;;;;;4996989;28;20062;-37
2023/12/20 03:51:17;;;;;;;13.40;2.97;;;10.30;61.30;;;;;;4994749;28;20494;-36
2023/12/20 03:53:44;;;;;;;15.20;2.30;;;10.30;61.20;;;;;;5001866;28;20058;-37
2023/12/20 03:56:11;;;;;;;10.10;2.95;;;10.30;61.10;;;;;;5007727;28;20405;-36
2023/12/20 03:58:38;;;;;;;11.63;2.35;;;10.30;61.10;;;;;;5006764;28;20054;-36
2023/12/20 04:01:11;;;;;;;16.92;2.60;;;10.30;61.30;;;;;;5008086;28;20422;-36
2023/12/20 04:03:38;;;;;;;17.13;2.75;;;10.20;61.20;;;;;;5003358;28;20053;-37
2023/12/20 04:06:07;;;;;;;11.48;2.45;;;10.30;61.40;;;;;;5007399;28;20438;-37
2023/12/20 04:08:34;;;;;;;15.32;3.13;;;10.20;61.30;;;;;;5003388;28;20062;-36
2023/12/20 04:11:01;;;;;;;18.30;2.72;;;10.20;61.30;;;;;;5001147;28;20057;-37
2023/12/20 04:13:28;;;;;;;15.13;2.58;;;10.30;61.40;;;;;;4996635;28;20046;-37
2023/12/20 04:15:56;;;;;;;20.50;3.10;;;10.30;61.30;;;;;;5001900;28;20069;-36
2023/12/20 04:18:23;;;;;;;15.23;2.70;;;10.20;61.20;;;;;;4999917;28;20049;-36
2023/12/20 04:20:51;;;;;;;13.55;2.72;;;10.30;61.30;;;;;;4998210;28;20513;-38
2023/12/20 04:23:20;;;;;;;11.18;2.63;;;10.20;61.20;;;;;;5008094;28;20565;-36
2023/12/20 04:25:47;;;;;;;11.98;2.90;;;10.20;61.20;;;;;;5005583;28;21118;-36
2023/12/20 04:28:14;;;;;;;19.00;3.17;;;10.20;61.10;;;;;;5001525;28;20495;-37
2023/12/20 04:30:43;;;;;;;14.13;2.95;;;10.20;61.00;;;;;;5008907;28;20054;-36
2023/12/20 04:33:10;;;;;;;23.30;3.40;;;10.20;61.10;;;;;;5006596;28;20058;-37
2023/12/20 04:35:37;;;;;;;21.75;3.13;;;10.20;61.00;;;;;;5009363;28;20058;-36
2023/12/20 04:38:04;;;;;;;14.52;2.45;;;10.20;61.00;;;;;;5005111;28;20045;-36
2023/12/20 04:40:33;;;;;;;17.52;3.55;;;10.20;61.10;;;;;;5002193;28;20050;-37
2023/12/20 04:43:00;;;;;;;25.50;3.30;;;10.20;61.20;;;;;;5001742;28;20050;-37
2023/12/20 04:45:27;;;;;;;19.58;2.88;;;10.20;61.30;;;;;;5008683;28;20065;-38
2023/12/20 04:47:55;;;;;;;19.95;2.83;;;10.20;61.20;;;;;;5009175;28;20054;-38
2023/12/20 04:50:23;;;;;;;13.30;2.25;;;10.20;61.20;;;;;;5003361;28;20521;-37
2023/12/20 04:52:50;;;;;;;19.50;3.13;;;10.20;61.10;;;;;;5007521;28;20057;-37
2023/12/20 04:55:17;;;;;;;15.60;2.50;;;10.20;61.10;;;;;;5010536;28;20062;-38
2023/12/20 04:57:46;;;;;;;15.32;2.85;;;10.20;61.20;;;;;;5009725;28;20050;-36
2023/12/20 05:00:15;;;;;;;15.02;3.40;;;10.20;61.20;;;;;;5011367;28;20417;-37
2023/12/20 05:02:42;;;;;;;16.75;3.17;;;10.20;61.00;;;;;;5014366;28;20049;-36
2023/12/20 05:05:09;;;;;;;21.00;3.30;;;10.20;61.00;;;;;;5010868;28;20049;-37
2023/12/20 05:07:37;;;;;;;14.73;3.17;;;10.20;61.00;;;;;;5002682;28;20414;-37
2023/12/20 05:10:05;;;;;;;15.25;3.15;;;10.20;61.00;;;;;;5001990;28;20050;-36
2023/12/20 05:12:32;;;;;;;12.43;3.00;;;10.20;61.60;;;;;;5002908;28;20050;-37
2023/12/20 05:15:01;;;;;;;17.42;3.10;;;10.20;60.90;;;;;;5003780;28;20047;-38
2023/12/20 05:17:28;;;;;;;13.30;2.83;;;10.20;61.00;;;;;;4999431;28;20501;-37
2023/12/20 05:19:55;;;;;;;23.73;4.53;;;10.20;61.10;;;;;;5010744;28;20068;-36
2023/12/20 05:22:22;;;;;;;14.35;3.28;;;10.20;61.00;;;;;;5003592;28;20062;-36
2023/12/20 05:24:49;;;;;;;24.50;3.72;;;10.20;60.90;;;;;;5005517;28;20637;-36
2023/12/20 05:27:17;;;;;;;20.23;3.58;;;10.20;60.90;;;;;;5009136;28;20061;-37
2023/12/20 05:29:44;;;;;;;14.73;3.17;;;10.20;60.90;;;;;;5005870;28;20072;-37
2023/12/20 05:32:13;;;;;;;17.27;2.90;;;10.20;60.80;;;;;;5011271;28;20058;-37
2023/12/20 05:34:40;;;;;;;23.20;3.13;;;10.20;60.80;;;;;;5006266;28;20061;-37
2023/12/20 05:37:08;;;;;;;25.45;4.07;;;10.20;60.70;;;;;;5009535;28;20498;-37
2023/12/20 05:39:35;;;;;;;19.23;3.15;;;10.20;60.60;;;;;;5008527;28;20065;-36
2023/12/20 05:42:02;;;;;;;18.38;3.28;;;10.10;60.60;;;;;;5011118;28;20050;-38
2023/12/20 05:44:29;;;;;;;16.90;2.83;;;10.10;60.50;;;;;;5005338;28;20045;-37
2023/12/20 05:46:56;;;;;;;15.88;3.00;;;10.10;60.50;;;;;;5004543;28;20050;-37
2023/12/20 05:49:25;;;;;;;17.80;3.13;;;10.10;60.60;;;;;;5009180;28;20053;-36
2023/12/20 05:51:52;;;;;;;19.80;3.47;;;10.10;60.60;;;;;;5008391;28;20410;-37
2023/12/20 05:54:20;;;;;;;22.45;3.33;;;10.10;60.70;;;;;;5007953;28;20057;-37
2023/12/20 05:56:47;;;;;;;23.42;3.63;;;10.10;60.60;;;;;;5011361;28;20081;-38
2023/12/20 05:59:14;;;;;;;19.38;3.58;;;10.10;60.50;;;;;;5006583;28;20505;-37
2023/12/20 06:01:41;;;;;;;15.63;3.10;;;10.10;60.50;;;;;;5002090;28;20073;-37
2023/12/20 06:04:09;;;;;;;16.30;3.42;;;10.10;60.60;;;;;;5000120;28;20506;-36
2023/12/20 06:06:41;;;;;;;20.85;3.20;;;10.10;60.60;;;;;;5007079;28;20049;-37
2023/12/20 06:09:09;;;;;;;20.52;3.65;;;10.10;60.50;;;;;;5009274;28;20054;-37
2023/12/20 06:11:36;;;;;;;30.63;4.20;;;10.10;60.40;;;;;;5006288;28;20061;-48
2023/12/20 06:14:03;;;;;;;19.95;3.35;;;10.20;60.50;;;;;;4999400;28;20061;-48
2023/12/20 06:16:31;;;;;;;30.40;4.43;;;10.10;60.20;;;;;;5006908;28;20489;-48
2023/12/20 06:18:58;;;;;;;26.52;4.72;;;10.10;60.30;;;;;;5000161;28;20061;-44
2023/12/20 06:21:25;;;;;;;27.23;3.75;;;10.10;60.30;;;;;;5004353;28;20057;-45
2023/12/20 06:23:54;;;;;;;16.35;3.60;;;10.10;60.30;;;;;;5012886;28;20053;-51
2023/12/20 06:26:22;;;;;;;18.40;3.47;;;10.20;60.40;;;;;;5013016;28;20509;-51
2023/12/20 06:28:49;;;;;;;22.75;4.55;;;10.10;60.30;;;;;;5004972;28;20046;-51
2023/12/20 06:31:16;;;;;;;18.98;3.28;;;10.20;60.40;;;;;;5009895;28;20422;-47
2023/12/20 06:33:44;;;;;;;14.98;3.10;;;10.20;60.40;;;;;;5004438;28;20490;-50
2023/12/20 06:36:13;;;;;;;32.22;4.25;;;10.20;60.40;;;;;;5016321;28;20049;-51
2023/12/20 06:38:42;;;;;;;22.20;3.13;;;10.20;60.40;;;;;;5003996;28;20589;-50
2023/12/20 06:41:14;;;;;;;19.02;3.80;;;10.20;60.30;;;;;;5002411;28;20050;-47
2023/12/20 06:43:41;;;;;;;16.25;3.13;;;10.20;60.10;;;;;;5005181;28;20072;-43
2023/12/20 06:46:09;;;;;;;25.10;4.22;;;10.20;60.30;;;;;;4999157;28;20406;-47
2023/12/20 06:48:36;;;;;;;17.75;2.90;;;10.20;60.30;;;;;;4998861;28;20054;-51
2023/12/20 06:51:03;;;;;;;20.38;3.58;;;10.20;60.20;;;;;;5003123;28;20041;-50
2023/12/20 06:53:31;;;;;;;16.25;2.78;;;10.20;60.10;;;;;;5001465;28;20057;-51
2023/12/20 06:55:58;;;;;;;16.42;3.83;;;10.20;60.10;;;;;;5003962;28;20046;-50
2023/12/20 06:58:27;;;;;;;19.27;3.08;;;10.20;60.00;;;;;;4993301;28;20049;-48
2023/12/20 07:00:54;;;;;;;26.38;3.22;;;10.20;60.10;;;;;;5004955;28;20058;-51
2023/12/20 07:03:21;;;;;;;21.85;3.40;;;10.20;60.10;;;;;;5009217;28;20517;-44
2023/12/20 07:05:48;;;;;;;13.45;2.60;;;10.20;60.10;;;;;;5004159;28;20050;-51
2023/12/20 07:08:16;;;;;;;16.40;4.80;;;10.20;60.10;;;;;;5004532;28;20046;-50
2023/12/20 07:10:43;;;;;;;23.98;3.13;;;10.20;60.00;;;;;;5009521;28;20080;-49
2023/12/20 07:13:10;;;;;;;17.83;3.20;;;10.20;59.90;;;;;;5003324;28;20521;-50
2023/12/20 07:15:39;;;;;;;23.55;3.78;;;10.20;59.90;;;;;;5003717;28;20406;-45
2023/12/20 07:18:07;;;;;;;19.15;3.22;;;10.20;59.90;;;;;;5003608;28;20405;-48
2023/12/20 07:20:34;;;;;;;25.42;3.55;;;10.10;60.50;;;;;;5008555;28;20057;-52
2023/12/20 07:23:01;;;;;;;22.52;3.60;;;10.10;59.80;;;;;;5005857;28;20422;-46
2023/12/20 07:25:30;;;;;;;14.50;3.00;;;10.10;59.90;;;;;;5007443;28;20054;-46
2023/12/20 07:27:57;;;;;;;18.52;3.63;;;10.10;60.00;;;;;;5006046;28;20050;-51
2023/12/20 07:30:24;;;;;;;24.58;3.33;;;10.10;59.90;;;;;;5002719;28;20541;-49
2023/12/20 07:32:53;;;;;;;19.00;3.30;;;10.10;59.90;;;;;;5002081;28;20049;-51
2023/12/20 07:35:20;;;;;;;20.85;3.35;;;10.10;60.00;;;;;;5001436;28;20054;-47
2023/12/20 07:37:47;;;;;;;29.77;3.45;;;10.10;59.90;;;;;;4998625;28;20062;-48
2023/12/20 07:40:16;;;;;;;25.65;3.20;;;10.10;59.90;;;;;;5005630;28;20050;-48
2023/12/20 07:42:44;;;;;;;19.83;3.17;;;10.10;59.90;;;;;;4998250;28;20092;-51
2023/12/20 07:45:11;;;;;;;14.20;2.90;;;10.00;59.70;;;;;;4998158;28;20053;-50
2023/12/20 07:47:38;;;;;;;21.52;4.15;;;10.10;59.80;;;;;;5000458;28;20056;-48
2023/12/20 07:50:07;;;;;;;20.65;3.70;;;10.10;59.80;;;;;;5001880;28;20053;-51
2023/12/20 07:52:35;;;;;;;17.95;3.50;;;10.10;59.80;;;;;;5001989;28;20061;-48
2023/12/20 07:55:02;;;;;;;14.38;2.85;;;10.10;59.80;;;;;;4998743;28;20060;-45
2023/12/20 07:57:30;;;;;;;16.10;3.47;;;10.10;59.70;;;;;;4998126;28;20062;-46
2023/12/20 07:59:57;;;;;;;20.05;2.90;;;10.10;59.40;;;;;;5009294;28;20061;-40
2023/12/20 08:02:24;;;;;;;25.40;4.60;;;10.10;59.40;;;;;;5004542;28;20058;-49
2023/12/20 08:04:52;;;;;;;12.68;2.75;;;10.10;59.30;;;;;;4998295;28;20061;-51
2023/12/20 08:07:20;;;;;;;19.73;3.35;;;10.10;59.30;;;;;;4999994;28;20386;-51
2023/12/20 08:09:48;;;;;;;18.75;3.30;;;10.00;59.10;;;;;;5002258;28;20391;-52
2023/12/20 08:12:16;;;;;;;19.42;3.05;;;10.00;59.10;;;;;;5006479;28;20062;-51
2023/12/20 08:14:45;;;;;;;12.02;2.90;;;10.00;59.20;;;;;;5005329;28;20455;-52
2023/12/20 08:17:13;;;;;;;22.05;3.88;;;10.00;59.20;;;;;;5005476;28;20054;-49
2023/12/20 08:19:40;;;;;;;23.02;3.60;;;10.10;59.30;;;;;;5005418;28;20058;-49
2023/12/20 08:22:07;;;;;;;19.10;3.13;;;10.10;59.20;;;;;;5003519;28;20490;-48
2023/12/20 08:24:36;;;;;;;14.07;2.65;;;10.10;59.10;;;;;;5003237;28;20130;-50
2023/12/20 08:27:03;;;;;;;21.67;3.13;;;10.10;58.90;;;;;;5006935;28;20399;-47
2023/12/20 08:29:30;;;;;;;19.42;3.13;;;10.20;58.90;;;;;;5004519;28;20061;-37
2023/12/20 08:31:58;;;;;;;18.15;2.70;;;10.20;58.90;;;;;;5007144;28;20060;-38
2023/12/20 08:34:25;;;;;;;23.90;3.63;;;10.20;58.70;;;;;;5006005;28;20054;-37
2023/12/20 08:36:52;;;;;;;18.42;3.38;;;10.20;58.70;;;;;;5002041;28;20497;-35
2023/12/20 08:39:19;;;;;;;17.10;3.20;;;10.20;58.50;;;;;;5003584;28;20065;-36
2023/12/20 08:41:48;;;;;;;17.45;2.90;;;10.10;58.60;;;;;;5002473;28;20046;-37
2023/12/20 08:44:15;;;;;;;20.05;3.88;;;10.10;59.10;;;;;;5006918;28;20050;-36
2023/12/20 08:46:42;;;;;;;21.25;3.42;;;10.10;58.60;;;;;;5002954;28;20061;-36
2023/12/20 08:49:10;;;;;;;19.45;4.20;;;10.10;58.60;;;;;;5004980;28;20054;-35
2023/12/20 08:51:40;;;;;;;20.77;3.38;;;10.00;58.50;;;;;;5012480;28;20413;-36
2023/12/20 08:54:08;;;;;;;27.13;4.22;;;10.10;58.70;;;;;;5011022;28;20417;-36
2023/12/20 08:56:35;;;;;;;19.35;3.55;;;10.00;58.50;;;;;;5010470;28;20056;-36
2023/12/20 08:59:04;;;;;;;16.15;2.83;;;10.10;58.70;;;;;;5014978;28;20057;-37
2023/12/20 09:01:31;;;;;;;16.58;2.88;;;10.10;58.70;;;;;;5006180;28;20053;-36
2023/12/20 09:03:58;;;;;;;28.80;3.40;;;10.10;58.60;;;;;;5004793;28;20502;-36
2023/12/20 09:06:26;;;;;;;22.88;3.35;;;10.10;58.50;;;;;;5003322;28;20054;-37
2023/12/20 09:08:53;;;;;;;23.38;2.90;;;10.10;58.60;;;;;;5003410;28;20054;-36
2023/12/20 09:11:20;;;;;;;18.10;3.63;;;10.20;58.50;;;;;;5002280;28;20054;-36
2023/12/20 09:13:48;;;;;;;19.50;3.28;;;10.10;58.30;;;;;;5001237;28;20597;-36
2023/12/20 09:16:17;;;;;;;18.13;3.38;;;10.10;58.40;;;;;;5005716;28;20065;-36
2023/12/20 09:18:44;;;;;;;14.45;3.38;;;10.10;58.40;;;;;;5006534;28;20053;-37
2023/12/20 09:21:12;;;;;;;26.67;3.60;;;10.20;58.40;;;;;;5001770;28;20047;-36
2023/12/20 09:23:39;;;;;;;21.80;3.13;;;10.20;58.40;;;;;;5010193;28;20057;-36
2023/12/20 09:26:07;;;;;;;26.77;3.35;;;10.20;58.40;;;;;;5005327;28;20050;-37
2023/12/20 09:28:36;;;;;;;19.25;2.85;;;10.30;58.40;;;;;;5001780;28;20065;-37
2023/12/20 09:31:06;;;;;;;23.40;3.30;;;10.30;58.30;;;;;;5000352;28;20475;-36
2023/12/20 09:33:35;;;;;;;22.73;3.50;;;10.30;58.00;;;;;;5007835;28;20050;-36
2023/12/20 09:36:03;;;;;;;21.98;4.25;;;10.30;57.90;;;;;;5003281;28;20062;-37
2023/12/20 09:38:30;;;;;;;22.60;2.92;;;10.30;57.80;;;;;;5001864;28;20056;-37
2023/12/20 09:40:58;;;;;;;17.35;3.28;;;10.40;57.90;;;;;;5004635;28;20486;-38
2023/12/20 09:43:28;;;;;;;21.33;2.97;;;10.30;57.80;;;;;;5000978;28;20056;-37
2023/12/20 09:46:02;;;;;;;14.93;2.90;;;10.30;57.80;;;;;;4999912;28;20050;-37
2023/12/20 09:48:30;;;;;;;19.70;3.20;;;10.40;57.70;;;;;;4999295;28;20054;-36
2023/12/20 09:50:59;;;;;;;19.83;3.58;;;10.30;57.50;;;;;;5001916;28;20060;-37
2023/12/20 09:53:29;;;;;;;17.55;3.35;;;10.40;57.60;;;;;;4998566;28;20057;-37
2023/12/20 09:56:00;;;;;;;15.00;2.83;;;10.40;57.50;;;;;;5004689;28;20058;-37
2023/12/20 09:58:27;;;;;;;20.75;3.33;;;10.40;57.40;;;;;;4998721;28;20072;-37
2023/12/20 10:00:56;;;;;;;17.33;3.28;;;10.40;57.40;;;;;;5010493;28;20065;-37
2023/12/20 10:03:26;;;;;;;17.50;3.10;;;10.40;57.40;;;;;;5004974;28;20056;-37
2023/12/20 10:05:57;;;;;;;14.10;2.85;;;10.40;57.30;;;;;;5002263;28;20071;-37
2023/12/20 10:08:26;;;;;;;17.42;2.85;;;10.40;57.10;;;;;;4998998;28;20050;-36
2023/12/20 10:10:53;;;;;;;15.23;2.42;;;10.30;57.10;;;;;;5001177;28;20049;-36
2023/12/20 10:13:20;;;;;;;18.85;3.28;;;10.30;57.30;;;;;;4998950;28;20507;-36
2023/12/20 10:15:48;;;;;;;18.98;2.78;;;10.40;57.30;;;;;;5005146;28;20410;-37
2023/12/20 10:18:17;;;;;;;16.25;3.25;;;10.40;57.70;;;;;;5004123;28;20426;-36
2023/12/20 10:20:47;;;;;;;20.02;3.88;;;10.30;57.20;;;;;;5009925;28;20053;-36
2023/12/20 10:23:16;;;;;;;15.20;2.53;;;10.30;57.30;;;;;;5001235;28;20414;-35
2023/12/20 10:25:50;;;;;;;15.68;3.03;;;10.30;57.30;;;;;;5002080;28;20061;-36
2023/12/20 10:28:21;;;;;;;26.38;3.15;;;10.30;57.50;;;;;;5005975;28;20058;-37
2023/12/20 10:30:48;;;;;;;19.30;3.40;;;10.30;57.50;;;;;;5000938;28;20050;-36
2023/12/20 10:33:25;;;;;;;14.30;2.97;;;10.40;57.50;;;;;;5000635;28;20061;-36
2023/12/20 10:35:53;;;;;;;20.05;2.83;;;10.30;57.40;;;;;;5001231;28;20068;-35
2023/12/20 10:38:21;;;;;;;18.60;3.13;;;10.20;57.30;;;;;;4999604;28;20058;-37
2023/12/20 10:40:54;;;;;;;15.43;2.60;;;10.20;57.50;;;;;;5001916;28;20486;-37
2023/12/20 10:43:22;;;;;;;14.98;3.10;;;10.20;57.60;;;;;;5004675;28;20068;-37
2023/12/20 10:45:49;;;;;;;17.95;2.70;;;10.30;57.70;;;;;;4996898;28;20046;-36
2023/12/20 10:48:18;;;;;;;14.75;2.17;;;10.30;57.60;;;;;;5004161;28;20049;-37
2023/12/20 10:50:47;;;;;;;11.80;2.65;;;10.30;57.80;;;;;;5005422;28;20057;-45
2023/12/20 10:53:14;;;;;;;12.13;2.25;;;10.40;57.80;;;;;;5002655;28;20050;-51
2023/12/20 10:55:44;;;;;;;20.52;3.33;;;10.30;57.50;;;;;;5006476;28;20049;-47
2023/12/20 10:58:14;;;;;;;14.63;2.45;;;10.40;57.60;;;;;;4996438;28;20046;-50
2023/12/20 11:00:42;;;;;;;14.93;2.78;;;10.40;57.70;;;;;;5003185;28;20042;-48
2023/12/20 11:03:11;;;;;;;20.15;3.10;;;10.40;57.60;;;;;;4998596;28;20061;-51
2023/12/20 11:05:45;;;;;;;14.10;2.90;;;10.30;57.60;;;;;;4998230;28;20050;-51
2023/12/20 11:08:18;;;;;;;15.75;2.42;;;10.40;57.60;;;;;;4997511;28;20061;-49
2023/12/20 11:10:56;;;;;;;14.32;3.08;;;10.40;57.60;;;;;;5006841;28;20501;-48
2023/12/20 11:13:29;;;;;;;18.77;3.45;;;10.40;57.70;;;;;;4994384;28;20073;-50
2023/12/20 11:15:57;;;;;;;18.55;2.95;;;10.50;57.60;;;;;;5000691;28;20054;-50
2023/12/20 11:18:30;;;;;;;17.73;3.08;;;10.40;57.60;;;;;;4997271;28;20047;-51
2023/12/20 11:21:02;;;;;;;19.20;3.10;;;10.40;57.60;;;;;;4995544;28;20045;-51
2023/12/20 11:23:30;;;;;;;17.83;3.75;;;10.50;57.50;;;;;;4999523;28;20509;-43
2023/12/20 11:25:58;;;;;;;19.95;2.85;;;10.60;57.60;;;;;;4998149;28;20723;-41
2023/12/20 11:28:29;;;;;;;14.35;3.67;;;10.50;57.40;;;;;;4998984;28;20053;-43
2023/12/20 11:30:59;;;;;;;22.45;3.00;;;10.60;57.50;;;;;;5004137;28;20046;-47
2023/12/20 11:33:30;;;;;;;20.55;3.30;;;10.60;57.50;;;;;;4996828;28;20495;-52
2023/12/20 11:35:59;;;;;;;21.20;3.22;;;10.60;57.50;;;;;;5000600;28;20054;-44
2023/12/20 11:38:26;;;;;;;20.67;3.15;;;10.50;57.40;;;;;;4998525;28;20426;-51
2023/12/20 11:40:55;;;;;;;21.13;3.55;;;10.50;57.50;;;;;;5006376;28;20042;-50
2023/12/20 11:43:36;;;;;;;16.27;2.75;;;10.60;57.60;;;;;;5010188;28;21304;-48
2023/12/20 11:46:05;;;;;;;15.90;2.83;;;10.60;57.60;;;;;;4999819;28;20065;-51
2023/12/20 11:48:33;;;;;;;18.17;2.80;;;10.60;57.60;;;;;;5000418;28;20077;-51
2023/12/20 11:51:00;;;;;;;15.13;3.20;;;10.50;57.50;;;;;;4999256;28;20054;-46
2023/12/20 11:53:27;;;;;;;13.73;2.65;;;10.60;57.60;;;;;;5000830;28;20068;-41
2023/12/20 11:55:55;;;;;;;12.55;2.88;;;10.50;57.50;;;;;;5001700;28;20050;-50
2023/12/20 11:58:22;;;;;;;11.85;2.78;;;10.60;57.70;;;;;;5007059;28;20077;-48
2023/12/20 12:00:52;;;;;;;17.48;2.95;;;10.50;57.60;;;;;;5003800;28;20414;-52
2023/12/20 12:03:19;;;;;;;14.27;2.83;;;10.60;57.60;;;;;;5009317;28;20050;-47
2023/12/20 12:05:49;;;;;;;16.98;3.00;;;10.60;57.70;;;;;;5002029;28;20057;-47
2023/12/20 12:08:16;;;;;;;17.70;3.17;;;10.60;57.50;;;;;;4997370;28;20069;-51
2023/12/20 12:10:45;;;;;;;22.92;3.90;;;10.60;57.60;;;;;;4996858;28;20045;-49
2023/12/20 12:13:14;;;;;;;19.05;2.75;;;10.50;57.40;;;;;;5005564;28;20066;-48
2023/12/20 12:15:42;;;;;;;16.05;3.42;;;10.60;57.50;;;;;;5008224;28;20482;-49
2023/12/20 12:18:11;;;;;;;15.13;2.63;;;10.50;57.60;;;;;;5001384;28;20069;-46
2023/12/20 12:20:38;;;;;;;16.25;2.90;;;10.60;57.60;;;;;;5003878;28;20042;-47
2023/12/20 12:23:07;;;;;;;14.23;2.92;;;10.50;57.50;;;;;;5009997;28;20401;-46
2023/12/20 12:25:36;;;;;;;14.73;2.88;;;10.60;57.50;;;;;;5006746;28;20049;-50
2023/12/20 12:28:04;;;;;;;19.58;3.53;;;10.50;57.60;;;;;;5002056;28;20057;-49
2023/12/20 12:30:31;;;;;;;11.18;2.97;;;10.50;57.60;;;;;;5001139;28;20058;-50
2023/12/20 12:32:58;;;;;;;17.45;2.97;;;10.60;57.50;;;;;;5002527;28;20054;-48
2023/12/20 12:35:27;;;;;;;19.58;3.53;;;10.60;57.50;;;;;;5005866;28;20414;-52
2023/12/20 12:37:54;;;;;;;12.80;2.42;;;10.70;57.40;;;;;;5010720;28;20532;-48
2023/12/20 12:40:21;;;;;;;16.65;3.65;;;10.60;57.40;;;;;;5007526;28;20058;-47
2023/12/20 12:42:49;;;;;;;12.50;2.80;;;10.70;57.40;;;;;;5002832;28;20061;-51